sensor_id;sensor_type;location;lat;lon;timestamp;temperature;humidity
18807;DHT22;9531;52.030;4.380;2023-03-24T00:00:16;11.90;1.00
18807;DHT22;9531;52.030;4.380;2023-03-24T00:02:46;11.90;1.00
18807;DHT22;9531;52.030;4.380;2023-03-24T00:05:14;11.90;1.00
18807;DHT22;9531;52.030;4.380;2023-03-24T00:07:44;11.90;1.00
18807;DHT22;9531;52.030;4.380;2023-03-24T00:10:14;12.00;1.00
18807;DHT22;9531;52.030;4.380;2023-03-24T00:12:43;11.90;1.00
18807;DHT22;9531;52.030;4.380;2023-03-24T00:15:11;11.90;1.00
18807;DHT22;9531;52.030;4.380;2023-03-24T00:17:39;11.90;1.00
18807;DHT22;9531;52.030;4.380;2023-03-24T00:20:08;11.90;1.00
18807;DHT22;9531;52.030;4.380;2023-03-24T00:22:40;12.00;1.00
18807;DHT22;9531;52.030;4.380;2023-03-24T00:25:10;12.00;1.00
18807;DHT22;9531;52.030;4.380;2023-03-24T00:27:37;11.90;1.00
18807;DHT22;9531;52.030;4.380;2023-03-24T00:30:06;12.00;1.00
18807;DHT22;9531;52.030;4.380;2023-03-24T00:32:34;12.00;1.00
18807;DHT22;9531;52.030;4.380;2023-03-24T00:35:04;11.90;1.00
18807;DHT22;9531;52.030;4.380;2023-03-24T00:37:33;12.00;1.40
18807;DHT22;9531;52.030;4.380;2023-03-24T00:40:03;12.00;1.00
18807;DHT22;9531;52.030;4.380;2023-03-24T00:42:34;12.00;1.00
18807;DHT22;9531;52.030;4.380;2023-03-24T00:45:01;12.00;1.00
18807;DHT22;9531;52.030;4.380;2023-03-24T00:47:30;12.00;1.00
18807;DHT22;9531;52.030;4.380;2023-03-24T00:50:01;12.00;1.00
18807;DHT22;9531;52.030;4.380;2023-03-24T00:52:29;12.00;1.00
18807;DHT22;9531;52.030;4.380;2023-03-24T00:55:00;12.00;1.00
18807;DHT22;9531;52.030;4.380;2023-03-24T00:57:28;12.00;1.00
18807;DHT22;9531;52.030;4.380;2023-03-24T01:00:03;12.00;1.00
18807;DHT22;9531;52.030;4.380;2023-03-24T01:02:37;12.00;1.00
18807;DHT22;9531;52.030;4.380;2023-03-24T01:05:04;12.10;1.00
18807;DHT22;9531;52.030;4.380;2023-03-24T01:07:32;12.00;1.00
18807;DHT22;9531;52.030;4.380;2023-03-24T01:09:59;12.10;1.00
18807;DHT22;9531;52.030;4.380;2023-03-24T01:12:29;12.00;1.00
18807;DHT22;9531;52.030;4.380;2023-03-24T01:14:57;12.00;1.00
18807;DHT22;9531;52.030;4.380;2023-03-24T01:17:25;12.00;1.00
18807;DHT22;9531;52.030;4.380;2023-03-24T01:19:54;12.10;1.00
18807;DHT22;9531;52.030;4.380;2023-03-24T01:22:25;12.10;1.00
18807;DHT22;9531;52.030;4.380;2023-03-24T01:24:52;12.00;1.00
18807;DHT22;9531;52.030;4.380;2023-03-24T01:27:19;12.00;1.00
18807;DHT22;9531;52.030;4.380;2023-03-24T01:29:46;12.00;1.00
18807;DHT22;9531;52.030;4.380;2023-03-24T01:32:14;12.10;1.00
18807;DHT22;9531;52.030;4.380;2023-03-24T01:34:42;12.10;1.00
18807;DHT22;9531;52.030;4.380;2023-03-24T01:37:09;12.00;1.00
18807;DHT22;9531;52.030;4.380;2023-03-24T01:39:36;12.00;1.00
18807;DHT22;9531;52.030;4.380;2023-03-24T01:42:03;12.00;1.00
18807;DHT22;9531;52.030;4.380;2023-03-24T01:44:32;12.00;1.00
18807;DHT22;9531;52.030;4.380;2023-03-24T01:47:01;12.00;1.00
18807;DHT22;9531;52.030;4.380;2023-03-24T01:49:33;12.00;1.40
18807;DHT22;9531;52.030;4.380;2023-03-24T01:52:05;12.00;99.90
18807;DHT22;9531;52.030;4.380;2023-03-24T01:54:36;12.00;99.90
18807;DHT22;9531;52.030;4.380;2023-03-24T01:57:07;11.90;99.90
18807;DHT22;9531;52.030;4.380;2023-03-24T01:59:39;11.90;99.90
18807;DHT22;9531;52.030;4.380;2023-03-24T02:02:07;11.90;99.90
18807;DHT22;9531;52.030;4.380;2023-03-24T02:04:41;11.80;99.90
18807;DHT22;9531;52.030;4.380;2023-03-24T02:07:16;11.80;99.90
18807;DHT22;9531;52.030;4.380;2023-03-24T02:09:44;11.80;99.90
18807;DHT22;9531;52.030;4.380;2023-03-24T02:12:13;11.70;99.90
18807;DHT22;9531;52.030;4.380;2023-03-24T02:14:40;11.70;99.90
18807;DHT22;9531;52.030;4.380;2023-03-24T02:17:26;11.60;99.90
18807;DHT22;9531;52.030;4.380;2023-03-24T02:23:39;11.60;99.90
18807;DHT22;9531;52.030;4.380;2023-03-24T02:26:49;11.50;99.90
18807;DHT22;9531;52.030;4.380;2023-03-24T02:36:06;11.40;99.90
18807;DHT22;9531;52.030;4.380;2023-03-24T02:39:10;11.40;99.90
18807;DHT22;9531;52.030;4.380;2023-03-24T02:41:42;11.30;99.90
18807;DHT22;9531;52.030;4.380;2023-03-24T02:44:19;11.30;99.90
18807;DHT22;9531;52.030;4.380;2023-03-24T02:46:52;11.20;99.90
18807;DHT22;9531;52.030;4.380;2023-03-24T02:49:27;11.20;99.90
18807;DHT22;9531;52.030;4.380;2023-03-24T02:52:02;11.20;99.90
18807;DHT22;9531;52.030;4.380;2023-03-24T02:54:40;11.10;99.90
18807;DHT22;9531;52.030;4.380;2023-03-24T02:57:11;11.00;99.90
18807;DHT22;9531;52.030;4.380;2023-03-24T02:59:43;11.10;99.90
18807;DHT22;9531;52.030;4.380;2023-03-24T03:02:14;11.00;99.90
18807;DHT22;9531;52.030;4.380;2023-03-24T03:04:45;10.90;99.90
18807;DHT22;9531;52.030;4.380;2023-03-24T03:07:18;11.00;99.90
18807;DHT22;9531;52.030;4.380;2023-03-24T03:09:56;10.90;99.90
18807;DHT22;9531;52.030;4.380;2023-03-24T03:12:28;10.90;99.90
18807;DHT22;9531;52.030;4.380;2023-03-24T03:14:59;10.90;99.90
18807;DHT22;9531;52.030;4.380;2023-03-24T03:17:32;10.90;99.90
18807;DHT22;9531;52.030;4.380;2023-03-24T03:20:03;10.80;99.90
18807;DHT22;9531;52.030;4.380;2023-03-24T03:22:37;10.80;99.90
18807;DHT22;9531;52.030;4.380;2023-03-24T03:25:11;10.80;99.90
18807;DHT22;9531;52.030;4.380;2023-03-24T03:27:39;10.80;99.90
18807;DHT22;9531;52.030;4.380;2023-03-24T03:30:12;10.70;99.90
18807;DHT22;9531;52.030;4.380;2023-03-24T03:32:45;10.70;99.90
18807;DHT22;9531;52.030;4.380;2023-03-24T03:35:22;10.70;99.90
18807;DHT22;9531;52.030;4.380;2023-03-24T03:37:57;10.70;99.90
18807;DHT22;9531;52.030;4.380;2023-03-24T03:40:33;10.70;99.90
18807;DHT22;9531;52.030;4.380;2023-03-24T03:43:01;10.70;99.90
18807;DHT22;9531;52.030;4.380;2023-03-24T03:45:29;10.70;99.90
18807;DHT22;9531;52.030;4.380;2023-03-24T03:47:56;10.70;99.90
18807;DHT22;9531;52.030;4.380;2023-03-24T03:50:23;10.70;99.90
18807;DHT22;9531;52.030;4.380;2023-03-24T03:52:51;10.70;99.90
18807;DHT22;9531;52.030;4.380;2023-03-24T03:55:18;10.60;99.90
18807;DHT22;9531;52.030;4.380;2023-03-24T03:57:47;10.60;99.90
18807;DHT22;9531;52.030;4.380;2023-03-24T04:00:16;10.60;99.90
18807;DHT22;9531;52.030;4.380;2023-03-24T04:02:58;10.60;99.90
18807;DHT22;9531;52.030;4.380;2023-03-24T04:05:29;10.60;99.90
18807;DHT22;9531;52.030;4.380;2023-03-24T04:08:07;10.50;99.90
18807;DHT22;9531;52.030;4.380;2023-03-24T04:10:51;10.50;99.90
18807;DHT22;9531;52.030;4.380;2023-03-24T04:13:28;10.50;99.90
18807;DHT22;9531;52.030;4.380;2023-03-24T04:16:04;10.50;99.90
18807;DHT22;9531;52.030;4.380;2023-03-24T04:18:50;10.50;99.90
18807;DHT22;9531;52.030;4.380;2023-03-24T04:24:16;10.40;99.90
18807;DHT22;9531;52.030;4.380;2023-03-24T04:26:54;10.30;99.90
18807;DHT22;9531;52.030;4.380;2023-03-24T04:29:31;10.30;99.90
18807;DHT22;9531;52.030;4.380;2023-03-24T04:32:05;10.30;99.90
18807;DHT22;9531;52.030;4.380;2023-03-24T04:34:38;10.20;99.90
18807;DHT22;9531;52.030;4.380;2023-03-24T04:37:09;10.20;99.90
18807;DHT22;9531;52.030;4.380;2023-03-24T04:39:40;10.20;99.90
18807;DHT22;9531;52.030;4.380;2023-03-24T04:42:11;10.20;99.90
18807;DHT22;9531;52.030;4.380;2023-03-24T04:44:40;10.10;99.90
18807;DHT22;9531;52.030;4.380;2023-03-24T04:47:09;10.10;99.90
18807;DHT22;9531;52.030;4.380;2023-03-24T04:49:37;10.10;99.90
18807;DHT22;9531;52.030;4.380;2023-03-24T04:52:06;10.00;99.90
18807;DHT22;9531;52.030;4.380;2023-03-24T04:54:33;10.00;99.90
18807;DHT22;9531;52.030;4.380;2023-03-24T04:57:01;10.00;99.90
18807;DHT22;9531;52.030;4.380;2023-03-24T04:59:28;9.90;99.90
18807;DHT22;9531;52.030;4.380;2023-03-24T05:01:59;10.00;99.90
18807;DHT22;9531;52.030;4.380;2023-03-24T05:04:27;9.90;99.90
18807;DHT22;9531;52.030;4.380;2023-03-24T05:06:55;9.90;99.90
18807;DHT22;9531;52.030;4.380;2023-03-24T05:09:23;9.90;99.90
18807;DHT22;9531;52.030;4.380;2023-03-24T05:11:51;9.90;99.90
18807;DHT22;9531;52.030;4.380;2023-03-24T05:14:18;9.90;99.90
18807;DHT22;9531;52.030;4.380;2023-03-24T05:16:45;9.90;99.90
18807;DHT22;9531;52.030;4.380;2023-03-24T05:19:13;9.90;99.90
18807;DHT22;9531;52.030;4.380;2023-03-24T05:21:41;9.90;99.90
18807;DHT22;9531;52.030;4.380;2023-03-24T05:24:08;9.90;99.90
18807;DHT22;9531;52.030;4.380;2023-03-24T05:26:35;9.90;99.90
18807;DHT22;9531;52.030;4.380;2023-03-24T05:29:02;9.90;99.90
18807;DHT22;9531;52.030;4.380;2023-03-24T05:31:30;9.90;99.90
18807;DHT22;9531;52.030;4.380;2023-03-24T05:33:57;9.90;99.90
18807;DHT22;9531;52.030;4.380;2023-03-24T05:36:26;9.90;99.90
18807;DHT22;9531;52.030;4.380;2023-03-24T05:38:53;10.00;99.90
18807;DHT22;9531;52.030;4.380;2023-03-24T05:41:20;9.90;99.90
18807;DHT22;9531;52.030;4.380;2023-03-24T05:43:47;10.00;99.90
18807;DHT22;9531;52.030;4.380;2023-03-24T05:46:14;10.00;99.90
18807;DHT22;9531;52.030;4.380;2023-03-24T05:48:41;9.90;99.90
18807;DHT22;9531;52.030;4.380;2023-03-24T05:51:09;10.00;99.90
18807;DHT22;9531;52.030;4.380;2023-03-24T05:53:37;10.00;99.90
18807;DHT22;9531;52.030;4.380;2023-03-24T05:56:05;9.90;99.90
18807;DHT22;9531;52.030;4.380;2023-03-24T05:58:36;10.00;99.90
18807;DHT22;9531;52.030;4.380;2023-03-24T06:01:06;10.00;99.90
18807;DHT22;9531;52.030;4.380;2023-03-24T06:03:35;10.00;99.90
18807;DHT22;9531;52.030;4.380;2023-03-24T06:06:04;10.00;99.90
18807;DHT22;9531;52.030;4.380;2023-03-24T06:08:32;10.00;99.90
18807;DHT22;9531;52.030;4.380;2023-03-24T06:11:01;10.00;99.90
18807;DHT22;9531;52.030;4.380;2023-03-24T06:13:29;10.00;99.90
18807;DHT22;9531;52.030;4.380;2023-03-24T06:15:57;10.00;99.90
18807;DHT22;9531;52.030;4.380;2023-03-24T06:18:24;10.00;99.90
18807;DHT22;9531;52.030;4.380;2023-03-24T06:20:52;10.00;99.90
18807;DHT22;9531;52.030;4.380;2023-03-24T06:23:21;10.00;99.90
18807;DHT22;9531;52.030;4.380;2023-03-24T06:25:50;10.10;99.90
18807;DHT22;9531;52.030;4.380;2023-03-24T06:28:20;10.00;99.90
18807;DHT22;9531;52.030;4.380;2023-03-24T06:30:50;10.00;99.90
18807;DHT22;9531;52.030;4.380;2023-03-24T06:33:17;10.00;99.90
18807;DHT22;9531;52.030;4.380;2023-03-24T06:35:46;10.00;99.90
18807;DHT22;9531;52.030;4.380;2023-03-24T06:38:22;10.00;99.90
18807;DHT22;9531;52.030;4.380;2023-03-24T06:40:51;10.10;99.90
18807;DHT22;9531;52.030;4.380;2023-03-24T06:43:24;10.10;99.90
18807;DHT22;9531;52.030;4.380;2023-03-24T06:45:51;10.10;99.90
18807;DHT22;9531;52.030;4.380;2023-03-24T06:48:20;10.20;99.90
18807;DHT22;9531;52.030;4.380;2023-03-24T06:50:50;10.20;99.90
18807;DHT22;9531;52.030;4.380;2023-03-24T06:53:17;10.20;99.90
18807;DHT22;9531;52.030;4.380;2023-03-24T06:55:46;10.30;99.90
18807;DHT22;9531;52.030;4.380;2023-03-24T06:58:14;10.30;99.90
18807;DHT22;9531;52.030;4.380;2023-03-24T07:00:45;10.40;99.90
18807;DHT22;9531;52.030;4.380;2023-03-24T07:03:14;10.50;99.90
18807;DHT22;9531;52.030;4.380;2023-03-24T07:05:44;10.70;99.90
18807;DHT22;9531;52.030;4.380;2023-03-24T07:08:12;10.80;99.90
18807;DHT22;9531;52.030;4.380;2023-03-24T07:10:40;10.80;99.90
18807;DHT22;9531;52.030;4.380;2023-03-24T07:13:07;11.00;99.90
18807;DHT22;9531;52.030;4.380;2023-03-24T07:15:37;11.10;99.90
18807;DHT22;9531;52.030;4.380;2023-03-24T07:18:06;11.20;99.90
18807;DHT22;9531;52.030;4.380;2023-03-24T07:20:33;11.40;99.90
18807;DHT22;9531;52.030;4.380;2023-03-24T07:23:03;11.70;99.90
18807;DHT22;9531;52.030;4.380;2023-03-24T07:25:31;11.80;99.90
18807;DHT22;9531;52.030;4.380;2023-03-24T07:27:59;12.00;99.90
18807;DHT22;9531;52.030;4.380;2023-03-24T07:30:26;12.20;99.90
18807;DHT22;9531;52.030;4.380;2023-03-24T07:32:55;12.30;99.90
18807;DHT22;9531;52.030;4.380;2023-03-24T07:35:24;12.30;99.90
18807;DHT22;9531;52.030;4.380;2023-03-24T07:37:51;12.30;99.90
18807;DHT22;9531;52.030;4.380;2023-03-24T07:40:19;12.30;99.90
18807;DHT22;9531;52.030;4.380;2023-03-24T07:42:46;12.30;99.90
18807;DHT22;9531;52.030;4.380;2023-03-24T07:45:13;12.20;99.90
18807;DHT22;9531;52.030;4.380;2023-03-24T07:47:43;12.20;99.90
18807;DHT22;9531;52.030;4.380;2023-03-24T07:50:13;12.20;99.90
18807;DHT22;9531;52.030;4.380;2023-03-24T07:52:47;12.20;99.90
18807;DHT22;9531;52.030;4.380;2023-03-24T07:55:14;12.20;99.90
18807;DHT22;9531;52.030;4.380;2023-03-24T07:57:42;12.20;99.90
18807;DHT22;9531;52.030;4.380;2023-03-24T08:00:13;12.30;99.90
18807;DHT22;9531;52.030;4.380;2023-03-24T08:02:43;12.40;99.90
18807;DHT22;9531;52.030;4.380;2023-03-24T08:05:11;12.50;99.90
18807;DHT22;9531;52.030;4.380;2023-03-24T08:07:39;12.60;99.90
18807;DHT22;9531;52.030;4.380;2023-03-24T08:10:16;12.60;99.90
18807;DHT22;9531;52.030;4.380;2023-03-24T08:12:43;12.70;99.90
18807;DHT22;9531;52.030;4.380;2023-03-24T08:15:11;12.70;99.90
18807;DHT22;9531;52.030;4.380;2023-03-24T08:17:40;12.70;99.90
18807;DHT22;9531;52.030;4.380;2023-03-24T08:20:09;12.80;99.90
18807;DHT22;9531;52.030;4.380;2023-03-24T08:22:44;12.80;99.90
18807;DHT22;9531;52.030;4.380;2023-03-24T08:25:17;12.90;99.90
18807;DHT22;9531;52.030;4.380;2023-03-24T08:27:46;13.10;99.90
18807;DHT22;9531;52.030;4.380;2023-03-24T08:30:15;13.10;99.90
18807;DHT22;9531;52.030;4.380;2023-03-24T08:32:44;13.20;99.90
18807;DHT22;9531;52.030;4.380;2023-03-24T08:35:20;13.20;99.90
18807;DHT22;9531;52.030;4.380;2023-03-24T08:37:48;13.10;99.90
18807;DHT22;9531;52.030;4.380;2023-03-24T08:40:20;13.00;99.90
18807;DHT22;9531;52.030;4.380;2023-03-24T08:42:49;13.00;99.90
18807;DHT22;9531;52.030;4.380;2023-03-24T08:45:20;13.00;99.90
18807;DHT22;9531;52.030;4.380;2023-03-24T08:47:49;13.00;99.90
18807;DHT22;9531;52.030;4.380;2023-03-24T08:50:19;13.00;99.90
18807;DHT22;9531;52.030;4.380;2023-03-24T08:52:47;13.00;99.90
18807;DHT22;9531;52.030;4.380;2023-03-24T08:55:17;13.10;99.90
18807;DHT22;9531;52.030;4.380;2023-03-24T08:57:44;13.10;99.90
18807;DHT22;9531;52.030;4.380;2023-03-24T09:00:12;13.10;99.90
18807;DHT22;9531;52.030;4.380;2023-03-24T09:02:40;12.90;99.90
18807;DHT22;9531;52.030;4.380;2023-03-24T09:05:10;12.80;99.90
18807;DHT22;9531;52.030;4.380;2023-03-24T09:07:37;12.80;99.90
18807;DHT22;9531;52.030;4.380;2023-03-24T09:10:11;12.80;99.90
18807;DHT22;9531;52.030;4.380;2023-03-24T09:12:41;12.90;99.90
18807;DHT22;9531;52.030;4.380;2023-03-24T09:15:10;13.10;99.90
18807;DHT22;9531;52.030;4.380;2023-03-24T09:17:39;13.40;99.90
18807;DHT22;9531;52.030;4.380;2023-03-24T09:20:11;13.70;99.90
18807;DHT22;9531;52.030;4.380;2023-03-24T09:22:40;14.00;99.90
18807;DHT22;9531;52.030;4.380;2023-03-24T09:25:08;14.30;99.90
18807;DHT22;9531;52.030;4.380;2023-03-24T09:27:37;14.50;99.90
18807;DHT22;9531;52.030;4.380;2023-03-24T09:30:07;14.50;99.90
18807;DHT22;9531;52.030;4.380;2023-03-24T09:32:37;14.50;99.90
18807;DHT22;9531;52.030;4.380;2023-03-24T09:35:05;14.50;99.90
18807;DHT22;9531;52.030;4.380;2023-03-24T09:37:33;14.60;99.90
18807;DHT22;9531;52.030;4.380;2023-03-24T09:40:04;14.60;99.90
18807;DHT22;9531;52.030;4.380;2023-03-24T09:42:35;14.80;99.90
18807;DHT22;9531;52.030;4.380;2023-03-24T09:45:14;15.00;99.90
18807;DHT22;9531;52.030;4.380;2023-03-24T09:47:50;15.30;99.90
18807;DHT22;9531;52.030;4.380;2023-03-24T09:50:22;15.50;99.90
18807;DHT22;9531;52.030;4.380;2023-03-24T09:52:53;15.70;99.90
18807;DHT22;9531;52.030;4.380;2023-03-24T09:55:24;15.70;99.90
18807;DHT22;9531;52.030;4.380;2023-03-24T09:57:54;15.80;99.90
18807;DHT22;9531;52.030;4.380;2023-03-24T10:00:25;16.00;99.90
18807;DHT22;9531;52.030;4.380;2023-03-24T10:02:53;16.20;99.90
18807;DHT22;9531;52.030;4.380;2023-03-24T10:05:27;16.30;99.90
18807;DHT22;9531;52.030;4.380;2023-03-24T10:08:13;16.40;99.90
18807;DHT22;9531;52.030;4.380;2023-03-24T10:10:48;16.50;99.90
18807;DHT22;9531;52.030;4.380;2023-03-24T10:13:21;16.60;99.90
18807;DHT22;9531;52.030;4.380;2023-03-24T10:16:00;16.70;99.90
18807;DHT22;9531;52.030;4.380;2023-03-24T10:18:33;16.80;99.90
18807;DHT22;9531;52.030;4.380;2023-03-24T10:21:07;16.80;99.90
18807;DHT22;9531;52.030;4.380;2023-03-24T10:23:43;17.00;99.90
18807;DHT22;9531;52.030;4.380;2023-03-24T10:26:28;17.40;99.90
18807;DHT22;9531;52.030;4.380;2023-03-24T10:29:05;17.60;99.90
18807;DHT22;9531;52.030;4.380;2023-03-24T10:31:37;17.70;99.90
18807;DHT22;9531;52.030;4.380;2023-03-24T10:34:09;17.80;99.90
18807;DHT22;9531;52.030;4.380;2023-03-24T10:36:40;17.70;99.90
18807;DHT22;9531;52.030;4.380;2023-03-24T10:39:11;17.60;99.90
18807;DHT22;9531;52.030;4.380;2023-03-24T10:41:41;17.50;99.90
18807;DHT22;9531;52.030;4.380;2023-03-24T10:44:09;17.30;99.90
18807;DHT22;9531;52.030;4.380;2023-03-24T10:46:44;17.10;99.90
18807;DHT22;9531;52.030;4.380;2023-03-24T10:49:16;17.10;99.90
18807;DHT22;9531;52.030;4.380;2023-03-24T10:51:46;17.00;99.90
18807;DHT22;9531;52.030;4.380;2023-03-24T10:54:17;16.90;99.90
18807;DHT22;9531;52.030;4.380;2023-03-24T10:56:46;16.90;99.90
18807;DHT22;9531;52.030;4.380;2023-03-24T10:59:24;16.80;99.90
18807;DHT22;9531;52.030;4.380;2023-03-24T11:01:58;17.00;99.90
18807;DHT22;9531;52.030;4.380;2023-03-24T11:04:28;17.00;99.90
18807;DHT22;9531;52.030;4.380;2023-03-24T11:07:04;17.00;99.90
18807;DHT22;9531;52.030;4.380;2023-03-24T11:09:42;16.90;99.90
18807;DHT22;9531;52.030;4.380;2023-03-24T11:12:20;16.90;99.90
18807;DHT22;9531;52.030;4.380;2023-03-24T11:14:48;17.10;99.90
18807;DHT22;9531;52.030;4.380;2023-03-24T11:17:19;17.20;99.90
18807;DHT22;9531;52.030;4.380;2023-03-24T11:19:52;17.60;99.90
18807;DHT22;9531;52.030;4.380;2023-03-24T11:22:19;17.90;99.90
18807;DHT22;9531;52.030;4.380;2023-03-24T11:24:49;18.30;99.90
18807;DHT22;9531;52.030;4.380;2023-03-24T11:27:17;18.60;99.90
18807;DHT22;9531;52.030;4.380;2023-03-24T11:29:48;18.90;99.90
18807;DHT22;9531;52.030;4.380;2023-03-24T11:32:22;19.20;99.90
18807;DHT22;9531;52.030;4.380;2023-03-24T11:35:00;19.30;99.90
18807;DHT22;9531;52.030;4.380;2023-03-24T11:37:31;19.40;99.90
18807;DHT22;9531;52.030;4.380;2023-03-24T11:40:18;19.50;99.90
18807;DHT22;9531;52.030;4.380;2023-03-24T11:42:47;19.50;99.90
18807;DHT22;9531;52.030;4.380;2023-03-24T11:45:25;19.20;99.90
18807;DHT22;9531;52.030;4.380;2023-03-24T11:47:57;19.00;99.90
18807;DHT22;9531;52.030;4.380;2023-03-24T11:50:27;18.80;99.90
18807;DHT22;9531;52.030;4.380;2023-03-24T11:53:01;18.70;99.90
18807;DHT22;9531;52.030;4.380;2023-03-24T11:55:39;18.80;99.90
18807;DHT22;9531;52.030;4.380;2023-03-24T11:58:16;18.80;99.90
18807;DHT22;9531;52.030;4.380;2023-03-24T12:00:47;18.80;99.90
18807;DHT22;9531;52.030;4.380;2023-03-24T12:03:57;18.80;99.90
18807;DHT22;9531;52.030;4.380;2023-03-24T12:06:34;18.80;99.90
18807;DHT22;9531;52.030;4.380;2023-03-24T12:09:19;19.00;99.90
18807;DHT22;9531;52.030;4.380;2023-03-24T12:11:56;19.10;99.90
18807;DHT22;9531;52.030;4.380;2023-03-24T12:14:32;19.20;99.90
18807;DHT22;9531;52.030;4.380;2023-03-24T12:17:06;19.30;99.90
18807;DHT22;9531;52.030;4.380;2023-03-24T12:20:02;19.40;99.90
18807;DHT22;9531;52.030;4.380;2023-03-24T12:22:40;19.50;99.90
18807;DHT22;9531;52.030;4.380;2023-03-24T12:25:23;19.60;99.90
18807;DHT22;9531;52.030;4.380;2023-03-24T12:27:59;19.70;99.90
18807;DHT22;9531;52.030;4.380;2023-03-24T12:30:37;19.90;99.90
18807;DHT22;9531;52.030;4.380;2023-03-24T12:33:19;19.90;99.90
18807;DHT22;9531;52.030;4.380;2023-03-24T12:36:05;20.00;99.90
18807;DHT22;9531;52.030;4.380;2023-03-24T12:38:45;20.00;99.90
18807;DHT22;9531;52.030;4.380;2023-03-24T12:41:24;19.90;99.90
18807;DHT22;9531;52.030;4.380;2023-03-24T12:44:14;19.90;99.90
18807;DHT22;9531;52.030;4.380;2023-03-24T12:46:51;19.60;99.90
18807;DHT22;9531;52.030;4.380;2023-03-24T12:49:38;19.50;99.90
18807;DHT22;9531;52.030;4.380;2023-03-24T12:52:44;19.30;99.90
18807;DHT22;9531;52.030;4.380;2023-03-24T12:55:17;19.30;99.90
18807;DHT22;9531;52.030;4.380;2023-03-24T12:57:47;19.40;99.90
18807;DHT22;9531;52.030;4.380;2023-03-24T13:00:22;19.50;99.90
18807;DHT22;9531;52.030;4.380;2023-03-24T13:02:54;19.50;99.90
18807;DHT22;9531;52.030;4.380;2023-03-24T13:05:27;19.60;99.90
18807;DHT22;9531;52.030;4.380;2023-03-24T13:08:01;19.70;99.90
18807;DHT22;9531;52.030;4.380;2023-03-24T13:10:32;19.80;99.90
18807;DHT22;9531;52.030;4.380;2023-03-24T13:13:11;19.90;99.90
18807;DHT22;9531;52.030;4.380;2023-03-24T13:15:45;19.90;99.90
18807;DHT22;9531;52.030;4.380;2023-03-24T13:18:25;19.90;99.90
18807;DHT22;9531;52.030;4.380;2023-03-24T13:20:54;19.90;99.90
18807;DHT22;9531;52.030;4.380;2023-03-24T13:23:33;19.80;99.90
18807;DHT22;9531;52.030;4.380;2023-03-24T13:26:09;19.80;99.90
18807;DHT22;9531;52.030;4.380;2023-03-24T13:28:41;19.90;99.90
18807;DHT22;9531;52.030;4.380;2023-03-24T13:31:11;19.80;99.90
18807;DHT22;9531;52.030;4.380;2023-03-24T13:33:39;19.80;99.90
18807;DHT22;9531;52.030;4.380;2023-03-24T13:36:28;19.80;99.90
18807;DHT22;9531;52.030;4.380;2023-03-24T13:39:01;19.70;99.90
18807;DHT22;9531;52.030;4.380;2023-03-24T13:41:34;19.60;99.90
18807;DHT22;9531;52.030;4.380;2023-03-24T13:44:07;19.60;99.90
18807;DHT22;9531;52.030;4.380;2023-03-24T13:46:35;19.60;99.90
18807;DHT22;9531;52.030;4.380;2023-03-24T13:49:07;19.60;99.90
18807;DHT22;9531;52.030;4.380;2023-03-24T13:51:43;19.60;99.90
18807;DHT22;9531;52.030;4.380;2023-03-24T13:54:14;19.60;99.90
18807;DHT22;9531;52.030;4.380;2023-03-24T13:56:47;19.70;99.90
18807;DHT22;9531;52.030;4.380;2023-03-24T13:59:29;19.80;99.90
18807;DHT22;9531;52.030;4.380;2023-03-24T14:02:22;19.90;99.90
18807;DHT22;9531;52.030;4.380;2023-03-24T14:05:02;20.00;99.90
18807;DHT22;9531;52.030;4.380;2023-03-24T14:07:33;20.10;99.90
18807;DHT22;9531;52.030;4.380;2023-03-24T14:10:37;20.10;99.90
18807;DHT22;9531;52.030;4.380;2023-03-24T14:13:16;20.30;99.90
18807;DHT22;9531;52.030;4.380;2023-03-24T14:15:49;20.40;99.90
18807;DHT22;9531;52.030;4.380;2023-03-24T14:18:40;20.60;99.90
18807;DHT22;9531;52.030;4.380;2023-03-24T14:21:09;20.70;99.90
18807;DHT22;9531;52.030;4.380;2023-03-24T14:23:38;20.80;99.90
18807;DHT22;9531;52.030;4.380;2023-03-24T14:26:11;20.90;99.90
18807;DHT22;9531;52.030;4.380;2023-03-24T14:28:41;21.00;99.90
18807;DHT22;9531;52.030;4.380;2023-03-24T14:31:17;21.00;99.90
18807;DHT22;9531;52.030;4.380;2023-03-24T14:33:58;21.00;99.90
18807;DHT22;9531;52.030;4.380;2023-03-24T14:36:30;21.00;99.90
18807;DHT22;9531;52.030;4.380;2023-03-24T14:39:12;21.00;99.90
18807;DHT22;9531;52.030;4.380;2023-03-24T14:41:45;21.00;99.90
18807;DHT22;9531;52.030;4.380;2023-03-24T14:44:51;21.00;99.90
18807;DHT22;9531;52.030;4.380;2023-03-24T14:47:22;21.00;99.90
18807;DHT22;9531;52.030;4.380;2023-03-24T14:49:52;21.00;99.90
18807;DHT22;9531;52.030;4.380;2023-03-24T14:52:21;21.00;99.90
18807;DHT22;9531;52.030;4.380;2023-03-24T14:54:51;20.90;99.90
18807;DHT22;9531;52.030;4.380;2023-03-24T14:57:23;20.90;99.90
18807;DHT22;9531;52.030;4.380;2023-03-24T14:59:56;20.90;99.90
18807;DHT22;9531;52.030;4.380;2023-03-24T15:02:34;20.90;99.90
18807;DHT22;9531;52.030;4.380;2023-03-24T15:05:20;20.90;99.90
18807;DHT22;9531;52.030;4.380;2023-03-24T15:07:59;20.90;99.90
18807;DHT22;9531;52.030;4.380;2023-03-24T15:10:32;20.90;99.90
18807;DHT22;9531;52.030;4.380;2023-03-24T15:13:03;20.90;99.90
18807;DHT22;9531;52.030;4.380;2023-03-24T15:15:31;20.90;99.90
18807;DHT22;9531;52.030;4.380;2023-03-24T15:17:58;20.80;99.90
18807;DHT22;9531;52.030;4.380;2023-03-24T15:20:28;20.80;99.90
18807;DHT22;9531;52.030;4.380;2023-03-24T15:23:04;20.80;99.90
18807;DHT22;9531;52.030;4.380;2023-03-24T15:25:32;20.80;99.90
18807;DHT22;9531;52.030;4.380;2023-03-24T15:27:59;20.70;99.90
18807;DHT22;9531;52.030;4.380;2023-03-24T15:30:28;20.70;99.90
18807;DHT22;9531;52.030;4.380;2023-03-24T15:32:58;20.60;99.90
18807;DHT22;9531;52.030;4.380;2023-03-24T15:35:25;20.40;99.90
18807;DHT22;9531;52.030;4.380;2023-03-24T15:37:54;20.30;99.90
18807;DHT22;9531;52.030;4.380;2023-03-24T15:40:37;20.20;99.90
18807;DHT22;9531;52.030;4.380;2023-03-24T15:43:14;20.00;99.90
18807;DHT22;9531;52.030;4.380;2023-03-24T15:45:51;19.90;99.90
18807;DHT22;9531;52.030;4.380;2023-03-24T15:48:22;19.60;99.90
18807;DHT22;9531;52.030;4.380;2023-03-24T15:50:56;19.50;99.90
18807;DHT22;9531;52.030;4.380;2023-03-24T15:53:25;19.30;99.90
18807;DHT22;9531;52.030;4.380;2023-03-24T15:56:02;19.10;99.90
18807;DHT22;9531;52.030;4.380;2023-03-24T16:01:38;18.60;99.90
18807;DHT22;9531;52.030;4.380;2023-03-24T16:04:09;18.50;99.90
18807;DHT22;9531;52.030;4.380;2023-03-24T16:06:42;18.30;99.90
18807;DHT22;9531;52.030;4.380;2023-03-24T16:09:15;18.10;99.90
18807;DHT22;9531;52.030;4.380;2023-03-24T16:11:47;17.90;99.90
18807;DHT22;9531;52.030;4.380;2023-03-24T16:14:21;17.80;99.90
18807;DHT22;9531;52.030;4.380;2023-03-24T16:16:52;17.70;99.90
18807;DHT22;9531;52.030;4.380;2023-03-24T16:19:26;17.60;99.90
18807;DHT22;9531;52.030;4.380;2023-03-24T16:21:53;17.50;99.90
18807;DHT22;9531;52.030;4.380;2023-03-24T16:24:21;17.40;99.90
18807;DHT22;9531;52.030;4.380;2023-03-24T16:26:52;17.20;99.90
18807;DHT22;9531;52.030;4.380;2023-03-24T16:29:21;17.10;99.90
18807;DHT22;9531;52.030;4.380;2023-03-24T16:31:51;17.00;99.90
18807;DHT22;9531;52.030;4.380;2023-03-24T16:34:19;16.90;99.90